Flight Track Log - Related Links

Times and Time Zones

All times are in EDT time to prevent confusion due to time zone crossing. See the SKW6451 flight status page for this flight to view local times or setup timezone preferences in your user account.

Time Position Orientation Groundspeed Altitude Reporting Facility
EDT Latitude Longitude Course Direction KTS MPH feet Rate Location/Type
Mon 08:32:56 PM 45.5944 -122.5936 294° West 140 161 700  Level Seattle Center
Mon 08:33:54 PM 45.6100 -122.6439 307° West 161 185 2,200 1,603 Climbing Seattle Center
Mon 08:34:52 PM 45.6397 -122.7000 350° North 193 222 3,800 1,659 Climbing Seattle Center
Mon 08:35:57 PM 45.6967 -122.7144 354° North 207 238 5,600 1,905 Climbing Seattle Center
Mon 08:36:58 PM 45.7536 -122.7228 356° North 210 242 7,800 2,016 Climbing Seattle Center
Mon 08:37:59 PM 45.8106 -122.7281 355° North 207 238 9,700 1,869 Climbing Seattle Center
Mon 08:39:00 PM 45.8683 -122.7347 354° North 207 238 11,600 1,721 Climbing Seattle Center
Mon 08:40:01 PM 45.9281 -122.7442 354° North 213 245 13,200 1,707 Climbing Seattle Center
Mon 08:41:03 PM 46.0014 -122.7550 354° North 220 253 15,100 1,366 Climbing Seattle Center
Mon 08:42:04 PM 46.0639 -122.7644 353° North 224 258 16,000 443 Climbing Seattle Center
Mon 08:43:05 PM 46.1386 -122.7775 356° North 271 312 16,000  Level Seattle Center
Mon 08:44:06 PM 46.2086 -122.7850 353° North 264 304 16,000  Level Seattle Center
Mon 08:45:07 PM 46.2842 -122.7975 354° North 271 312 16,000  Level Seattle Center
Mon 08:46:09 PM 46.3611 -122.8097 354° North 277 319 16,000 49 Level Seattle Center
Mon 08:47:10 PM 46.4528 -122.8247 354° North 278 320 16,100 49 Climbing Seattle Center
Mon 08:48:11 PM 46.5294 -122.8361 355° North 279 321 16,100  Level Seattle Center
Mon 08:49:12 PM 46.6058 -122.8467 354° North 279 321 16,100  Level Seattle Center
Mon 08:50:13 PM 46.6833 -122.8581 354° North 281 323 16,100 -293 Level Seattle Center
Mon 08:51:15 PM 46.7597 -122.8703 354° North 279 321 15,500 -1,122 Descending Seattle Center
Mon 08:52:16 PM 46.8353 -122.8819 353° North 277 319 13,800 -2,022 Descending Seattle Center
Mon 08:52:47 PM 46.8822 -122.8903 42° Northeast 272 313 12,400 -1,967 Descending Seattle Center
Mon 08:53:17 PM 46.9042 -122.8617 43° Northeast 282 325 11,800 -1,800 Descending Seattle Center
Mon 08:53:47 PM 46.9386 -122.8147 50° Northeast 276 318 10,600 -1,672 Descending Seattle Center
Mon 08:54:18 PM 46.9558 -122.7844 43° Northeast 268 308 10,100 -537 Descending Seattle Center
Mon 08:54:54 PM 46.9967 -122.7283 43° Northeast 262 302 10,000 -247 Descending Seattle Center
Mon 08:55:55 PM 47.0481 -122.6586 45° Northeast 250 288 9,700 -797 Descending Seattle Center
Mon 08:57:02 PM 47.0983 -122.5858 41° Northeast 240 276 8,300 -1,219 Descending Seattle Center
Mon 08:58:03 PM 47.1553 -122.5125 42° Northeast 254 292 7,100 -1,180 Descending Seattle Center
Mon 08:59:04 PM 47.2103 -122.4403 38° Northeast 266 306 5,900 -1,131 Descending Seattle Center
Mon 09:00:05 PM 47.2686 -122.3725 25° Northeast 268 308 4,800 -1,594 Descending Seattle Center
Mon 09:01:12 PM 47.3386 -122.3242 North 239 275 2,500 -1,761 Descending Seattle Center
Mon 09:01:54 PM 47.3775 -122.3192 North 206 237 1,600 -1,026 Descending Seattle Center
Mon 09:02:28 PM 47.4006 -122.3186 359° North 149 171 1,200 -716 Descending Seattle Center
Mon 09:03:01 PM 47.4197 -122.3189 357° North 131 151 800 -393 Descending Seattle Center
Mon 09:04:30 PM 47.4636 -122.3225 357° North 120 138 400 -270 Descending Seattle Center

Login

Don't have an account? Register now (free) for customized features, flight alerts, and more!